Centralgrove, Mississippi
Current Conditions -  °F | °C
As of 1:35 PM on Thursday 18 Dec 2014 (Local Time) from KM40 Reporting Station
Overcast Overcast  
Wind Chill: 48°   Ceiling: 4000
Heat Index: 48°   Visibility: 8mi
Dew Point: 34°   Wind: 3mph
Humidity: 57%   Direction: 40°NE
Pressure: 30.19"   Gusts: NA
Location:  33.8251°N, 88.6185°W
Report Text: KM40 181935Z AUTO 04003KT 8SM OVC040 09/01 A3019 RMK AO2
Loading
Personal Weather Stations






























Interactive Weather Map New forecast layout! Learn more

10-Day Weather Forecast

Advertisements
Track Severe Weather on mobile